sensor_id;sensor_type;location;lat;lon;timestamp;P1;durP1;ratioP1;P2;durP2;ratioP2
19343;SDS011;9808;52.402;16.678;2022-09-19T00:01:33;8.63;;;1.90;;
19343;SDS011;9808;52.402;16.678;2022-09-19T00:04:04;5.43;;;2.10;;
19343;SDS011;9808;52.402;16.678;2022-09-19T00:06:36;6.33;;;1.80;;
19343;SDS011;9808;52.402;16.678;2022-09-19T00:09:06;4.77;;;1.80;;
19343;SDS011;9808;52.402;16.678;2022-09-19T00:11:36;4.43;;;1.70;;
19343;SDS011;9808;52.402;16.678;2022-09-19T00:14:05;4.07;;;1.60;;
19343;SDS011;9808;52.402;16.678;2022-09-19T00:16:34;4.10;;;1.70;;
19343;SDS011;9808;52.402;16.678;2022-09-19T00:19:06;5.87;;;1.87;;
19343;SDS011;9808;52.402;16.678;2022-09-19T00:21:35;6.77;;;2.00;;
19343;SDS011;9808;52.402;16.678;2022-09-19T00:24:05;4.40;;;1.60;;
19343;SDS011;9808;52.402;16.678;2022-09-19T00:26:53;4.97;;;1.60;;
19343;SDS011;9808;52.402;16.678;2022-09-19T00:29:21;5.73;;;1.70;;
19343;SDS011;9808;52.402;16.678;2022-09-19T00:31:49;4.83;;;1.80;;
19343;SDS011;9808;52.402;16.678;2022-09-19T00:34:17;5.80;;;1.93;;
19343;SDS011;9808;52.402;16.678;2022-09-19T00:36:44;4.70;;;1.70;;
19343;SDS011;9808;52.402;16.678;2022-09-19T00:39:14;4.83;;;1.80;;
19343;SDS011;9808;52.402;16.678;2022-09-19T00:41:43;5.37;;;1.70;;
19343;SDS011;9808;52.402;16.678;2022-09-19T00:46:50;6.40;;;1.83;;
19343;SDS011;9808;52.402;16.678;2022-09-19T00:49:38;4.80;;;1.60;;
19343;SDS011;9808;52.402;16.678;2022-09-19T00:52:11;6.43;;;2.10;;
19343;SDS011;9808;52.402;16.678;2022-09-19T00:54:43;4.97;;;2.17;;
19343;SDS011;9808;52.402;16.678;2022-09-19T00:57:14;4.83;;;1.73;;
19343;SDS011;9808;52.402;16.678;2022-09-19T00:59:44;4.27;;;2.03;;
19343;SDS011;9808;52.402;16.678;2022-09-19T01:02:14;5.57;;;2.10;;
19343;SDS011;9808;52.402;16.678;2022-09-19T01:04:45;6.83;;;2.60;;
19343;SDS011;9808;52.402;16.678;2022-09-19T01:15:57;10.10;;;5.20;;
19343;SDS011;9808;52.402;16.678;2022-09-19T01:18:37;13.27;;;5.70;;
19343;SDS011;9808;52.402;16.678;2022-09-19T01:30:09;20.53;;;11.03;;
19343;SDS011;9808;52.402;16.678;2022-09-19T01:32:40;22.00;;;10.93;;
19343;SDS011;9808;52.402;16.678;2022-09-19T01:35:16;21.03;;;10.40;;
19343;SDS011;9808;52.402;16.678;2022-09-19T01:37:46;25.20;;;12.10;;
19343;SDS011;9808;52.402;16.678;2022-09-19T01:40:16;24.97;;;11.33;;
19343;SDS011;9808;52.402;16.678;2022-09-19T01:42:51;22.33;;;11.77;;
19343;SDS011;9808;52.402;16.678;2022-09-19T01:45:31;21.30;;;12.07;;
19343;SDS011;9808;52.402;16.678;2022-09-19T01:48:05;22.43;;;10.80;;
19343;SDS011;9808;52.402;16.678;2022-09-19T01:56:09;15.80;;;8.27;;
19343;SDS011;9808;52.402;16.678;2022-09-19T02:01:22;16.73;;;9.07;;
19343;SDS011;9808;52.402;16.678;2022-09-19T02:04:05;15.73;;;8.73;;
19343;SDS011;9808;52.402;16.678;2022-09-19T02:10:20;13.83;;;7.73;;
19343;SDS011;9808;52.402;16.678;2022-09-19T02:12:27;17.63;;;7.80;;
19343;SDS011;9808;52.402;16.678;2022-09-19T02:14:57;14.40;;;7.87;;
19343;SDS011;9808;52.402;16.678;2022-09-19T02:17:40;12.30;;;6.53;;
19343;SDS011;9808;52.402;16.678;2022-09-19T02:20:23;10.93;;;5.70;;
19343;SDS011;9808;52.402;16.678;2022-09-19T02:22:52;10.37;;;5.73;;
19343;SDS011;9808;52.402;16.678;2022-09-19T02:25:25;9.27;;;5.30;;
19343;SDS011;9808;52.402;16.678;2022-09-19T02:28:00;10.20;;;5.43;;
19343;SDS011;9808;52.402;16.678;2022-09-19T02:30:34;10.70;;;5.10;;
19343;SDS011;9808;52.402;16.678;2022-09-19T02:33:02;9.97;;;4.90;;
19343;SDS011;9808;52.402;16.678;2022-09-19T02:35:39;11.67;;;5.30;;
19343;SDS011;9808;52.402;16.678;2022-09-19T02:38:14;11.23;;;5.47;;
19343;SDS011;9808;52.402;16.678;2022-09-19T02:41:18;10.37;;;5.40;;
19343;SDS011;9808;52.402;16.678;2022-09-19T02:44:00;10.13;;;5.10;;
19343;SDS011;9808;52.402;16.678;2022-09-19T02:51:45;13.20;;;5.60;;
19343;SDS011;9808;52.402;16.678;2022-09-19T02:54:18;13.47;;;5.53;;
19343;SDS011;9808;52.402;16.678;2022-09-19T02:56:49;11.80;;;5.60;;
19343;SDS011;9808;52.402;16.678;2022-09-19T02:59:26;11.70;;;5.77;;
19343;SDS011;9808;52.402;16.678;2022-09-19T03:02:03;11.63;;;5.63;;
19343;SDS011;9808;52.402;16.678;2022-09-19T03:04:44;12.20;;;5.27;;
19343;SDS011;9808;52.402;16.678;2022-09-19T03:07:26;10.80;;;5.60;;
19343;SDS011;9808;52.402;16.678;2022-09-19T03:18:19;10.33;;;5.23;;
19343;SDS011;9808;52.402;16.678;2022-09-19T03:20:53;9.93;;;5.40;;
19343;SDS011;9808;52.402;16.678;2022-09-19T03:23:32;13.83;;;5.57;;
19343;SDS011;9808;52.402;16.678;2022-09-19T03:26:05;10.83;;;4.67;;
19343;SDS011;9808;52.402;16.678;2022-09-19T03:28:35;12.57;;;5.70;;
19343;SDS011;9808;52.402;16.678;2022-09-19T03:31:02;10.37;;;4.70;;
19343;SDS011;9808;52.402;16.678;2022-09-19T03:33:28;11.83;;;5.33;;
19343;SDS011;9808;52.402;16.678;2022-09-19T03:35:55;8.87;;;4.60;;
19343;SDS011;9808;52.402;16.678;2022-09-19T03:38:23;9.73;;;5.33;;
19343;SDS011;9808;52.402;16.678;2022-09-19T03:40:50;9.67;;;4.97;;
19343;SDS011;9808;52.402;16.678;2022-09-19T03:43:16;11.13;;;4.60;;
19343;SDS011;9808;52.402;16.678;2022-09-19T03:45:44;9.87;;;5.27;;
19343;SDS011;9808;52.402;16.678;2022-09-19T03:48:11;9.53;;;4.80;;
19343;SDS011;9808;52.402;16.678;2022-09-19T03:50:38;12.07;;;4.60;;
19343;SDS011;9808;52.402;16.678;2022-09-19T03:53:05;11.97;;;4.63;;
19343;SDS011;9808;52.402;16.678;2022-09-19T03:55:34;7.20;;;4.43;;
19343;SDS011;9808;52.402;16.678;2022-09-19T03:58:04;10.27;;;4.40;;
19343;SDS011;9808;52.402;16.678;2022-09-19T04:00:31;12.40;;;4.33;;
19343;SDS011;9808;52.402;16.678;2022-09-19T04:02:58;8.93;;;4.13;;
19343;SDS011;9808;52.402;16.678;2022-09-19T04:05:24;10.50;;;4.43;;
19343;SDS011;9808;52.402;16.678;2022-09-19T04:07:51;11.10;;;4.77;;
19343;SDS011;9808;52.402;16.678;2022-09-19T04:10:18;8.83;;;4.47;;
19343;SDS011;9808;52.402;16.678;2022-09-19T04:12:45;7.53;;;4.13;;
19343;SDS011;9808;52.402;16.678;2022-09-19T04:15:14;9.67;;;4.70;;
19343;SDS011;9808;52.402;16.678;2022-09-19T04:17:42;8.50;;;4.60;;
19343;SDS011;9808;52.402;16.678;2022-09-19T04:20:09;11.63;;;5.60;;
19343;SDS011;9808;52.402;16.678;2022-09-19T04:22:36;9.10;;;4.40;;
19343;SDS011;9808;52.402;16.678;2022-09-19T04:25:04;10.53;;;4.60;;
19343;SDS011;9808;52.402;16.678;2022-09-19T04:27:35;12.60;;;4.80;;
19343;SDS011;9808;52.402;16.678;2022-09-19T04:30:04;9.20;;;4.60;;
19343;SDS011;9808;52.402;16.678;2022-09-19T04:32:31;8.50;;;4.37;;
19343;SDS011;9808;52.402;16.678;2022-09-19T04:34:58;9.40;;;4.53;;
19343;SDS011;9808;52.402;16.678;2022-09-19T04:37:26;8.90;;;4.90;;
19343;SDS011;9808;52.402;16.678;2022-09-19T04:39:53;10.50;;;5.63;;
19343;SDS011;9808;52.402;16.678;2022-09-19T04:42:20;10.03;;;5.07;;
19343;SDS011;9808;52.402;16.678;2022-09-19T04:44:47;8.40;;;4.90;;
19343;SDS011;9808;52.402;16.678;2022-09-19T04:47:14;8.07;;;4.80;;
19343;SDS011;9808;52.402;16.678;2022-09-19T04:49:40;10.03;;;5.07;;
19343;SDS011;9808;52.402;16.678;2022-09-19T04:52:08;9.77;;;5.20;;
19343;SDS011;9808;52.402;16.678;2022-09-19T04:54:39;13.23;;;5.23;;
19343;SDS011;9808;52.402;16.678;2022-09-19T04:57:07;8.87;;;5.30;;
19343;SDS011;9808;52.402;16.678;2022-09-19T04:59:35;11.63;;;5.50;;
19343;SDS011;9808;52.402;16.678;2022-09-19T05:02:02;8.53;;;5.13;;
19343;SDS011;9808;52.402;16.678;2022-09-19T05:04:33;10.90;;;5.17;;
19343;SDS011;9808;52.402;16.678;2022-09-19T05:07:01;12.67;;;6.10;;
19343;SDS011;9808;52.402;16.678;2022-09-19T05:09:28;14.13;;;6.40;;
19343;SDS011;9808;52.402;16.678;2022-09-19T05:11:55;13.00;;;5.90;;
19343;SDS011;9808;52.402;16.678;2022-09-19T05:14:23;13.27;;;5.93;;
19343;SDS011;9808;52.402;16.678;2022-09-19T05:16:53;15.87;;;6.10;;
19343;SDS011;9808;52.402;16.678;2022-09-19T05:19:20;14.30;;;6.70;;
19343;SDS011;9808;52.402;16.678;2022-09-19T05:21:49;11.37;;;6.33;;
19343;SDS011;9808;52.402;16.678;2022-09-19T05:24:16;9.53;;;6.07;;
19343;SDS011;9808;52.402;16.678;2022-09-19T05:26:45;12.07;;;6.23;;
19343;SDS011;9808;52.402;16.678;2022-09-19T05:29:13;15.53;;;6.30;;
19343;SDS011;9808;52.402;16.678;2022-09-19T05:31:40;11.53;;;6.07;;
19343;SDS011;9808;52.402;16.678;2022-09-19T05:34:08;12.20;;;6.10;;
19343;SDS011;9808;52.402;16.678;2022-09-19T05:36:39;12.73;;;6.47;;
19343;SDS011;9808;52.402;16.678;2022-09-19T05:39:06;10.93;;;5.80;;
19343;SDS011;9808;52.402;16.678;2022-09-19T05:41:34;12.27;;;6.23;;
19343;SDS011;9808;52.402;16.678;2022-09-19T05:44:01;13.57;;;6.50;;
19343;SDS011;9808;52.402;16.678;2022-09-19T05:46:28;11.00;;;6.60;;
19343;SDS011;9808;52.402;16.678;2022-09-19T05:48:57;10.73;;;6.67;;
19343;SDS011;9808;52.402;16.678;2022-09-19T05:51:23;11.57;;;6.70;;
19343;SDS011;9808;52.402;16.678;2022-09-19T05:53:50;10.07;;;6.13;;
19343;SDS011;9808;52.402;16.678;2022-09-19T05:56:22;10.93;;;6.20;;
19343;SDS011;9808;52.402;16.678;2022-09-19T05:58:52;11.47;;;6.27;;
19343;SDS011;9808;52.402;16.678;2022-09-19T06:01:20;10.67;;;5.90;;
19343;SDS011;9808;52.402;16.678;2022-09-19T06:03:47;11.20;;;6.07;;
19343;SDS011;9808;52.402;16.678;2022-09-19T06:06:15;11.87;;;6.13;;
19343;SDS011;9808;52.402;16.678;2022-09-19T06:08:46;12.43;;;6.03;;
19343;SDS011;9808;52.402;16.678;2022-09-19T06:11:19;12.57;;;6.57;;
19343;SDS011;9808;52.402;16.678;2022-09-19T06:13:46;14.77;;;7.40;;
19343;SDS011;9808;52.402;16.678;2022-09-19T06:16:31;10.90;;;5.90;;
19343;SDS011;9808;52.402;16.678;2022-09-19T06:18:58;12.97;;;6.60;;
19343;SDS011;9808;52.402;16.678;2022-09-19T06:21:26;12.20;;;6.27;;
19343;SDS011;9808;52.402;16.678;2022-09-19T06:23:52;13.00;;;6.80;;
19343;SDS011;9808;52.402;16.678;2022-09-19T06:26:19;12.03;;;7.17;;
19343;SDS011;9808;52.402;16.678;2022-09-19T06:28:47;10.53;;;6.60;;
19343;SDS011;9808;52.402;16.678;2022-09-19T06:31:14;13.20;;;7.30;;
19343;SDS011;9808;52.402;16.678;2022-09-19T06:33:41;11.53;;;6.63;;
19343;SDS011;9808;52.402;16.678;2022-09-19T06:36:09;10.30;;;6.50;;
19343;SDS011;9808;52.402;16.678;2022-09-19T06:38:36;11.50;;;6.80;;
19343;SDS011;9808;52.402;16.678;2022-09-19T06:41:07;11.20;;;6.17;;
19343;SDS011;9808;52.402;16.678;2022-09-19T06:43:35;13.50;;;6.83;;
19343;SDS011;9808;52.402;16.678;2022-09-19T06:46:02;10.23;;;6.63;;
19343;SDS011;9808;52.402;16.678;2022-09-19T06:48:30;12.67;;;6.70;;
19343;SDS011;9808;52.402;16.678;2022-09-19T06:50:57;10.63;;;6.50;;
19343;SDS011;9808;52.402;16.678;2022-09-19T06:53:23;13.20;;;6.93;;
19343;SDS011;9808;52.402;16.678;2022-09-19T06:55:50;9.23;;;5.70;;
19343;SDS011;9808;52.402;16.678;2022-09-19T06:58:17;9.50;;;5.80;;
19343;SDS011;9808;52.402;16.678;2022-09-19T07:00:44;15.07;;;6.43;;
19343;SDS011;9808;52.402;16.678;2022-09-19T07:03:14;13.13;;;6.70;;
19343;SDS011;9808;52.402;16.678;2022-09-19T07:05:44;12.10;;;6.00;;
19343;SDS011;9808;52.402;16.678;2022-09-19T07:08:12;9.97;;;6.27;;
19343;SDS011;9808;52.402;16.678;2022-09-19T07:10:40;11.27;;;5.53;;
19343;SDS011;9808;52.402;16.678;2022-09-19T07:13:09;11.40;;;5.07;;
19343;SDS011;9808;52.402;16.678;2022-09-19T07:15:40;15.70;;;5.87;;
19343;SDS011;9808;52.402;16.678;2022-09-19T07:18:08;9.70;;;5.37;;
19343;SDS011;9808;52.402;16.678;2022-09-19T07:20:36;11.13;;;5.37;;
19343;SDS011;9808;52.402;16.678;2022-09-19T07:25:37;12.23;;;5.03;;
19343;SDS011;9808;52.402;16.678;2022-09-19T07:28:05;12.07;;;6.77;;
19343;SDS011;9808;52.402;16.678;2022-09-19T07:30:35;8.63;;;4.93;;
19343;SDS011;9808;52.402;16.678;2022-09-19T07:33:03;11.43;;;5.40;;
19343;SDS011;9808;52.402;16.678;2022-09-19T07:35:32;8.90;;;4.97;;
19343;SDS011;9808;52.402;16.678;2022-09-19T07:38:02;13.07;;;5.20;;
19343;SDS011;9808;52.402;16.678;2022-09-19T07:40:30;11.53;;;5.17;;
19343;SDS011;9808;52.402;16.678;2022-09-19T07:43:03;10.87;;;5.13;;
19343;SDS011;9808;52.402;16.678;2022-09-19T07:45:34;13.40;;;5.60;;
19343;SDS011;9808;52.402;16.678;2022-09-19T07:48:04;10.60;;;5.70;;
19343;SDS011;9808;52.402;16.678;2022-09-19T07:50:32;9.00;;;5.37;;
19343;SDS011;9808;52.402;16.678;2022-09-19T07:53:02;12.23;;;4.87;;
19343;SDS011;9808;52.402;16.678;2022-09-19T07:55:35;10.37;;;5.60;;
19343;SDS011;9808;52.402;16.678;2022-09-19T07:58:02;12.37;;;5.47;;
19343;SDS011;9808;52.402;16.678;2022-09-19T08:00:31;10.97;;;5.30;;
19343;SDS011;9808;52.402;16.678;2022-09-19T08:03:11;10.07;;;5.20;;
19343;SDS011;9808;52.402;16.678;2022-09-19T08:05:40;9.30;;;5.23;;
19343;SDS011;9808;52.402;16.678;2022-09-19T08:08:09;11.13;;;5.50;;
19343;SDS011;9808;52.402;16.678;2022-09-19T08:10:38;9.03;;;4.97;;
19343;SDS011;9808;52.402;16.678;2022-09-19T08:13:12;11.13;;;5.40;;
19343;SDS011;9808;52.402;16.678;2022-09-19T08:15:42;8.97;;;4.93;;
19343;SDS011;9808;52.402;16.678;2022-09-19T08:18:20;8.77;;;4.77;;
19343;SDS011;9808;52.402;16.678;2022-09-19T08:20:49;9.37;;;5.13;;
19343;SDS011;9808;52.402;16.678;2022-09-19T08:23:17;12.17;;;5.00;;
19343;SDS011;9808;52.402;16.678;2022-09-19T08:25:48;10.17;;;5.50;;
19343;SDS011;9808;52.402;16.678;2022-09-19T08:28:17;9.17;;;5.03;;
19343;SDS011;9808;52.402;16.678;2022-09-19T08:30:48;13.30;;;5.10;;
19343;SDS011;9808;52.402;16.678;2022-09-19T08:33:15;11.33;;;5.10;;
19343;SDS011;9808;52.402;16.678;2022-09-19T08:35:42;8.83;;;4.73;;
19343;SDS011;9808;52.402;16.678;2022-09-19T08:38:11;8.90;;;4.33;;
19343;SDS011;9808;52.402;16.678;2022-09-19T08:45:58;7.10;;;4.20;;
19343;SDS011;9808;52.402;16.678;2022-09-19T08:54:28;6.83;;;4.17;;
19343;SDS011;9808;52.402;16.678;2022-09-19T08:56:57;7.13;;;3.90;;
19343;SDS011;9808;52.402;16.678;2022-09-19T08:59:29;7.47;;;4.30;;
19343;SDS011;9808;52.402;16.678;2022-09-19T09:02:07;8.73;;;4.43;;
19343;SDS011;9808;52.402;16.678;2022-09-19T09:04:50;8.27;;;4.17;;
19343;SDS011;9808;52.402;16.678;2022-09-19T09:10:07;6.03;;;4.03;;
19343;SDS011;9808;52.402;16.678;2022-09-19T09:13:10;7.50;;;4.30;;
19343;SDS011;9808;52.402;16.678;2022-09-19T09:19:20;6.83;;;3.90;;
19343;SDS011;9808;52.402;16.678;2022-09-19T09:24:36;7.13;;;3.87;;
19343;SDS011;9808;52.402;16.678;2022-09-19T09:27:10;7.80;;;4.03;;
19343;SDS011;9808;52.402;16.678;2022-09-19T09:29:45;6.50;;;3.97;;
19343;SDS011;9808;52.402;16.678;2022-09-19T09:32:36;6.37;;;3.87;;
19343;SDS011;9808;52.402;16.678;2022-09-19T09:35:11;6.10;;;3.57;;
19343;SDS011;9808;52.402;16.678;2022-09-19T09:37:49;7.80;;;4.03;;
19343;SDS011;9808;52.402;16.678;2022-09-19T09:40:40;6.97;;;3.37;;
19343;SDS011;9808;52.402;16.678;2022-09-19T09:43:40;7.97;;;3.90;;
19343;SDS011;9808;52.402;16.678;2022-09-19T09:49:44;5.40;;;3.30;;
19343;SDS011;9808;52.402;16.678;2022-09-19T09:57:54;8.93;;;3.40;;
19343;SDS011;9808;52.402;16.678;2022-09-19T10:00:42;5.27;;;2.90;;
19343;SDS011;9808;52.402;16.678;2022-09-19T10:03:46;4.97;;;2.70;;
19343;SDS011;9808;52.402;16.678;2022-09-19T10:06:20;5.73;;;2.50;;
19343;SDS011;9808;52.402;16.678;2022-09-19T10:09:13;4.40;;;2.27;;
19343;SDS011;9808;52.402;16.678;2022-09-19T10:14:33;3.77;;;2.20;;
19343;SDS011;9808;52.402;16.678;2022-09-19T10:17:04;3.77;;;2.30;;
19343;SDS011;9808;52.402;16.678;2022-09-19T10:22:09;2.73;;;1.80;;
19343;SDS011;9808;52.402;16.678;2022-09-19T10:27:14;2.80;;;1.90;;
19343;SDS011;9808;52.402;16.678;2022-09-19T10:32:28;3.67;;;2.10;;
19343;SDS011;9808;52.402;16.678;2022-09-19T10:35:37;3.40;;;1.93;;
19343;SDS011;9808;52.402;16.678;2022-09-19T10:40:58;3.57;;;2.23;;
19343;SDS011;9808;52.402;16.678;2022-09-19T10:43:28;4.23;;;1.87;;
19343;SDS011;9808;52.402;16.678;2022-09-19T10:45:58;3.03;;;1.97;;
19343;SDS011;9808;52.402;16.678;2022-09-19T10:48:33;3.33;;;1.80;;
19343;SDS011;9808;52.402;16.678;2022-09-19T10:51:07;2.60;;;1.73;;
19343;SDS011;9808;52.402;16.678;2022-09-19T10:53:39;3.57;;;2.13;;
19343;SDS011;9808;52.402;16.678;2022-09-19T10:56:24;2.40;;;1.70;;
19343;SDS011;9808;52.402;16.678;2022-09-19T10:58:58;3.17;;;2.00;;
19343;SDS011;9808;52.402;16.678;2022-09-19T11:01:29;2.83;;;1.70;;
19343;SDS011;9808;52.402;16.678;2022-09-19T11:03:59;3.43;;;1.70;;
19343;SDS011;9808;52.402;16.678;2022-09-19T11:06:29;2.97;;;1.70;;
19343;SDS011;9808;52.402;16.678;2022-09-19T11:08:57;3.43;;;1.73;;
19343;SDS011;9808;52.402;16.678;2022-09-19T11:11:32;3.10;;;1.60;;
19343;SDS011;9808;52.402;16.678;2022-09-19T11:20:21;4.83;;;1.80;;
19343;SDS011;9808;52.402;16.678;2022-09-19T11:34:40;3.83;;;1.70;;
19343;SDS011;9808;52.402;16.678;2022-09-19T11:37:34;2.40;;;1.60;;
19343;SDS011;9808;52.402;16.678;2022-09-19T11:45:46;2.13;;;1.47;;
19343;SDS011;9808;52.402;16.678;2022-09-19T12:08:01;4.07;;;1.67;;
19343;SDS011;9808;52.402;16.678;2022-09-19T12:10:55;2.80;;;1.40;;
19343;SDS011;9808;52.402;16.678;2022-09-19T12:13:39;1.67;;;1.20;;
19343;SDS011;9808;52.402;16.678;2022-09-19T12:16:28;1.90;;;1.30;;
19343;SDS011;9808;52.402;16.678;2022-09-19T12:19:08;4.47;;;1.40;;
19343;SDS011;9808;52.402;16.678;2022-09-19T12:21:41;2.20;;;1.50;;
19343;SDS011;9808;52.402;16.678;2022-09-19T12:24:14;3.03;;;1.20;;
19343;SDS011;9808;52.402;16.678;2022-09-19T12:27:14;1.20;;;1.00;;
19343;SDS011;9808;52.402;16.678;2022-09-19T12:32:42;1.87;;;1.50;;
19343;SDS011;9808;52.402;16.678;2022-09-19T12:35:20;3.47;;;1.80;;
19343;SDS011;9808;52.402;16.678;2022-09-19T12:46:38;2.83;;;0.90;;
19343;SDS011;9808;52.402;16.678;2022-09-19T12:49:41;1.77;;;1.00;;
19343;SDS011;9808;52.402;16.678;2022-09-19T12:52:32;1.57;;;1.00;;
19343;SDS011;9808;52.402;16.678;2022-09-19T12:57:47;1.95;;;1.25;;
19343;SDS011;9808;52.402;16.678;2022-09-19T13:00:47;3.40;;;1.37;;
19343;SDS011;9808;52.402;16.678;2022-09-19T13:03:28;1.80;;;1.20;;
19343;SDS011;9808;52.402;16.678;2022-09-19T13:06:03;2.78;;;1.02;;
19343;SDS011;9808;52.402;16.678;2022-09-19T13:08:47;2.00;;;0.90;;
19343;SDS011;9808;52.402;16.678;2022-09-19T13:14:11;1.00;;;0.73;;
19343;SDS011;9808;52.402;16.678;2022-09-19T13:16:43;1.73;;;1.00;;
19343;SDS011;9808;52.402;16.678;2022-09-19T13:19:37;1.42;;;0.90;;
19343;SDS011;9808;52.402;16.678;2022-09-19T13:22:24;1.00;;;0.80;;
19343;SDS011;9808;52.402;16.678;2022-09-19T13:25:16;1.40;;;0.73;;
19343;SDS011;9808;52.402;16.678;2022-09-19T13:27:45;1.85;;;0.82;;
19343;SDS011;9808;52.402;16.678;2022-09-19T13:33:21;1.10;;;0.80;;
19343;SDS011;9808;52.402;16.678;2022-09-19T13:35:54;1.30;;;0.75;;
19343;SDS011;9808;52.402;16.678;2022-09-19T13:38:41;1.67;;;0.90;;
19343;SDS011;9808;52.402;16.678;2022-09-19T13:46:54;1.08;;;0.80;;
19343;SDS011;9808;52.402;16.678;2022-09-19T13:49:34;1.48;;;0.65;;
19343;SDS011;9808;52.402;16.678;2022-09-19T13:52:09;1.30;;;0.80;;
19343;SDS011;9808;52.402;16.678;2022-09-19T13:57:21;1.45;;;0.70;;
19343;SDS011;9808;52.402;16.678;2022-09-19T13:59:56;0.60;;;0.55;;
19343;SDS011;9808;52.402;16.678;2022-09-19T14:05:21;1.05;;;0.50;;
19343;SDS011;9808;52.402;16.678;2022-09-19T14:21:07;2.53;;;0.90;;
19343;SDS011;9808;52.402;16.678;2022-09-19T14:23:40;6.32;;;1.40;;
19343;SDS011;9808;52.402;16.678;2022-09-19T14:28:53;3.22;;;1.20;;
19343;SDS011;9808;52.402;16.678;2022-09-19T14:46:21;3.13;;;1.40;;
19343;SDS011;9808;52.402;16.678;2022-09-19T14:48:58;0.40;;;0.40;;
19343;SDS011;9808;52.402;16.678;2022-09-19T14:56:35;2.38;;;0.63;;
19343;SDS011;9808;52.402;16.678;2022-09-19T14:59:02;0.95;;;0.45;;
19343;SDS011;9808;52.402;16.678;2022-09-19T15:01:31;1.55;;;0.60;;
19343;SDS011;9808;52.402;16.678;2022-09-19T15:04:10;2.43;;;0.63;;
19343;SDS011;9808;52.402;16.678;2022-09-19T15:06:46;1.98;;;0.63;;
19343;SDS011;9808;52.402;16.678;2022-09-19T15:09:36;2.55;;;1.00;;
19343;SDS011;9808;52.402;16.678;2022-09-19T15:12:15;2.53;;;0.90;;
19343;SDS011;9808;52.402;16.678;2022-09-19T15:14:48;0.80;;;0.40;;
19343;SDS011;9808;52.402;16.678;2022-09-19T15:17:26;4.33;;;0.67;;
19343;SDS011;9808;52.402;16.678;2022-09-19T15:19:57;2.47;;;1.17;;
19343;SDS011;9808;52.402;16.678;2022-09-19T15:25:27;1.40;;;0.70;;
19343;SDS011;9808;52.402;16.678;2022-09-19T15:27:57;3.90;;;0.73;;
19343;SDS011;9808;52.402;16.678;2022-09-19T15:30:29;1.50;;;0.80;;
19343;SDS011;9808;52.402;16.678;2022-09-19T15:33:00;3.13;;;1.30;;
19343;SDS011;9808;52.402;16.678;2022-09-19T15:35:46;3.00;;;1.07;;
19343;SDS011;9808;52.402;16.678;2022-09-19T15:38:21;3.63;;;1.00;;
19343;SDS011;9808;52.402;16.678;2022-09-19T15:40:50;3.23;;;1.37;;
19343;SDS011;9808;52.402;16.678;2022-09-19T15:43:23;8.70;;;5.10;;
19343;SDS011;9808;52.402;16.678;2022-09-19T15:45:51;32.87;;;20.67;;
19343;SDS011;9808;52.402;16.678;2022-09-19T15:48:28;34.93;;;24.07;;
19343;SDS011;9808;52.402;16.678;2022-09-19T15:51:26;34.43;;;22.23;;
19343;SDS011;9808;52.402;16.678;2022-09-19T15:53:56;29.20;;;19.20;;
19343;SDS011;9808;52.402;16.678;2022-09-19T15:56:24;18.33;;;12.10;;
19343;SDS011;9808;52.402;16.678;2022-09-19T15:58:53;11.13;;;6.53;;
19343;SDS011;9808;52.402;16.678;2022-09-19T16:01:23;9.83;;;5.90;;
19343;SDS011;9808;52.402;16.678;2022-09-19T16:04:02;7.27;;;4.40;;
19343;SDS011;9808;52.402;16.678;2022-09-19T16:09:39;20.13;;;9.70;;
19343;SDS011;9808;52.402;16.678;2022-09-19T16:14:53;7.90;;;3.60;;
19343;SDS011;9808;52.402;16.678;2022-09-19T16:17:23;4.60;;;2.03;;
19343;SDS011;9808;52.402;16.678;2022-09-19T16:19:52;6.67;;;1.67;;
19343;SDS011;9808;52.402;16.678;2022-09-19T16:22:23;5.00;;;1.73;;
19343;SDS011;9808;52.402;16.678;2022-09-19T16:24:57;3.93;;;1.60;;
19343;SDS011;9808;52.402;16.678;2022-09-19T16:27:29;3.37;;;1.30;;
19343;SDS011;9808;52.402;16.678;2022-09-19T16:29:57;2.00;;;1.10;;
19343;SDS011;9808;52.402;16.678;2022-09-19T16:32:27;3.07;;;1.20;;
19343;SDS011;9808;52.402;16.678;2022-09-19T16:34:56;3.73;;;1.23;;
19343;SDS011;9808;52.402;16.678;2022-09-19T16:37:33;4.10;;;2.10;;
19343;SDS011;9808;52.402;16.678;2022-09-19T16:40:06;5.63;;;2.87;;
19343;SDS011;9808;52.402;16.678;2022-09-19T16:42:47;7.13;;;3.80;;
19343;SDS011;9808;52.402;16.678;2022-09-19T16:45:18;6.00;;;3.13;;
19343;SDS011;9808;52.402;16.678;2022-09-19T16:48:06;7.03;;;3.77;;
19343;SDS011;9808;52.402;16.678;2022-09-19T16:50:35;7.10;;;3.90;;
19343;SDS011;9808;52.402;16.678;2022-09-19T16:53:08;7.53;;;3.83;;
19343;SDS011;9808;52.402;16.678;2022-09-19T16:55:40;10.07;;;4.43;;
19343;SDS011;9808;52.402;16.678;2022-09-19T16:58:17;8.93;;;4.50;;
19343;SDS011;9808;52.402;16.678;2022-09-19T17:00:44;7.93;;;4.70;;
19343;SDS011;9808;52.402;16.678;2022-09-19T17:03:11;8.70;;;4.73;;
19343;SDS011;9808;52.402;16.678;2022-09-19T17:05:41;9.10;;;5.50;;
19343;SDS011;9808;52.402;16.678;2022-09-19T17:08:07;10.37;;;6.53;;
19343;SDS011;9808;52.402;16.678;2022-09-19T17:10:34;10.77;;;7.23;;
19343;SDS011;9808;52.402;16.678;2022-09-19T17:13:02;12.43;;;8.03;;
19343;SDS011;9808;52.402;16.678;2022-09-19T17:18:06;22.13;;;12.57;;
19343;SDS011;9808;52.402;16.678;2022-09-19T17:20:33;23.83;;;13.33;;
19343;SDS011;9808;52.402;16.678;2022-09-19T17:23:00;20.10;;;11.20;;
19343;SDS011;9808;52.402;16.678;2022-09-19T17:25:43;13.50;;;7.53;;
19343;SDS011;9808;52.402;16.678;2022-09-19T17:28:13;11.10;;;5.87;;
19343;SDS011;9808;52.402;16.678;2022-09-19T17:30:43;9.60;;;4.03;;
19343;SDS011;9808;52.402;16.678;2022-09-19T17:33:12;9.20;;;4.20;;
19343;SDS011;9808;52.402;16.678;2022-09-19T17:35:41;9.50;;;4.03;;
19343;SDS011;9808;52.402;16.678;2022-09-19T17:38:08;5.80;;;2.30;;
19343;SDS011;9808;52.402;16.678;2022-09-19T17:40:40;4.13;;;1.87;;
19343;SDS011;9808;52.402;16.678;2022-09-19T17:43:11;5.93;;;2.20;;
19343;SDS011;9808;52.402;16.678;2022-09-19T17:45:41;6.43;;;2.63;;
19343;SDS011;9808;52.402;16.678;2022-09-19T17:48:10;6.17;;;2.40;;
19343;SDS011;9808;52.402;16.678;2022-09-19T17:50:38;6.80;;;2.50;;
19343;SDS011;9808;52.402;16.678;2022-09-19T17:53:08;5.83;;;2.10;;
19343;SDS011;9808;52.402;16.678;2022-09-19T17:55:36;6.30;;;2.17;;
19343;SDS011;9808;52.402;16.678;2022-09-19T17:58:03;4.70;;;1.50;;
19343;SDS011;9808;52.402;16.678;2022-09-19T18:00:38;6.57;;;2.10;;
19343;SDS011;9808;52.402;16.678;2022-09-19T18:03:06;5.90;;;1.90;;
19343;SDS011;9808;52.402;16.678;2022-09-19T18:05:54;5.27;;;1.80;;
19343;SDS011;9808;52.402;16.678;2022-09-19T18:08:26;4.77;;;1.57;;
19343;SDS011;9808;52.402;16.678;2022-09-19T18:11:03;5.80;;;2.00;;
19343;SDS011;9808;52.402;16.678;2022-09-19T18:13:31;6.00;;;2.03;;
19343;SDS011;9808;52.402;16.678;2022-09-19T18:16:06;3.67;;;1.50;;
19343;SDS011;9808;52.402;16.678;2022-09-19T18:18:39;7.77;;;2.63;;
19343;SDS011;9808;52.402;16.678;2022-09-19T18:21:06;14.00;;;7.70;;
19343;SDS011;9808;52.402;16.678;2022-09-19T18:23:34;13.07;;;6.60;;
19343;SDS011;9808;52.402;16.678;2022-09-19T18:26:03;14.03;;;4.77;;
19343;SDS011;9808;52.402;16.678;2022-09-19T18:28:32;9.53;;;3.73;;
19343;SDS011;9808;52.402;16.678;2022-09-19T18:31:07;6.90;;;3.30;;
19343;SDS011;9808;52.402;16.678;2022-09-19T18:33:35;8.13;;;2.53;;
19343;SDS011;9808;52.402;16.678;2022-09-19T18:36:06;7.17;;;2.90;;
19343;SDS011;9808;52.402;16.678;2022-09-19T18:38:36;7.30;;;3.07;;
19343;SDS011;9808;52.402;16.678;2022-09-19T18:41:04;8.00;;;2.90;;
19343;SDS011;9808;52.402;16.678;2022-09-19T18:43:32;6.00;;;3.03;;
19343;SDS011;9808;52.402;16.678;2022-09-19T18:45:59;6.03;;;2.30;;